Terminal Aerodrome Forecast
Issued by NWS

Home | Current Version | Previous Version | Text Only | Print | Product List | Glossary Off
Versions: 1 2 3 4 5 6 7 8 9 10 11 12 13 14 15 16 17 18 19 20 21 22 23 24 25 26 27 28 29 30

000
FTUS43 KBIS 261100
TAFMOT
TAF
KMOT 261135Z 2612/2712 06005KT P6SM SCT035 OVC090
     FM261600 07006KT P6SM SCT035 BKN080
     FM270100 11008KT P6SM SCT040
     FM270700 13008KT P6SM -SN SCT050 OVC090=

USA.gov is the U.S. government's official web portal to all federal, state and local government web resources and services.